createdAt,value
2023-01-12T00:02:09.855Z,45.10
2023-01-12T00:04:37.842Z,45.10
2023-01-12T00:07:05.820Z,45.10
2023-01-12T00:09:33.601Z,45.10
2023-01-12T00:12:01.544Z,45.00
2023-01-12T00:14:29.422Z,44.90
2023-01-12T00:16:57.240Z,45.00
2023-01-12T00:19:25.071Z,45.00
2023-01-12T00:21:59.425Z,44.80
2023-01-12T00:24:27.469Z,44.90
2023-01-12T00:26:55.296Z,45.00
2023-01-12T00:29:23.144Z,44.90
2023-01-12T00:31:51.006Z,45.20
2023-01-12T00:34:18.738Z,45.20
2023-01-12T00:36:46.722Z,45.10
2023-01-12T00:39:14.558Z,45.30
2023-01-12T00:41:59.951Z,45.30
2023-01-12T00:44:45.312Z,45.20
2023-01-12T00:47:13.237Z,45.30
2023-01-12T00:49:41.515Z,45.20
2023-01-12T00:52:11.385Z,45.20
2023-01-12T00:54:41.027Z,45.30
2023-01-12T01:05:28.351Z,45.20
2023-01-12T01:07:56.221Z,45.40
2023-01-12T01:10:24.096Z,45.40
2023-01-12T01:12:51.964Z,45.40
2023-01-12T01:15:19.715Z,45.40
2023-01-12T01:17:47.580Z,45.30
2023-01-12T01:20:15.295Z,45.40
2023-01-12T01:22:43.034Z,45.40
2023-01-12T01:25:11.071Z,45.30
2023-01-12T01:27:38.826Z,45.40
2023-01-12T01:30:06.640Z,45.30
2023-01-12T01:32:34.332Z,45.20
2023-01-12T01:35:02.151Z,45.40
2023-01-12T01:37:29.887Z,45.40
2023-01-12T01:39:57.673Z,45.40
2023-01-12T01:42:28.918Z,45.40
2023-01-12T01:44:56.638Z,45.30
2023-01-12T02:04:16.837Z,45.50
2023-01-12T02:06:47.568Z,45.50
2023-01-12T02:09:15.755Z,45.50
2023-01-12T02:12:01.121Z,45.40
2023-01-12T02:14:46.498Z,45.60
2023-01-12T02:17:14.414Z,45.60
2023-01-12T02:19:42.409Z,45.60
2023-01-12T02:22:12.316Z,45.60
2023-01-12T02:24:40.516Z,45.60
2023-01-12T02:27:08.461Z,45.70
2023-01-12T02:29:39.107Z,45.80
2023-01-12T02:32:07.707Z,45.80
2023-01-12T02:34:35.657Z,45.80
2023-01-12T02:40:14.751Z,45.80
2023-01-12T02:42:41.681Z,45.80
2023-01-12T02:45:09.447Z,45.80
2023-01-12T02:47:37.396Z,45.80
2023-01-12T02:50:06.402Z,45.70
2023-01-12T02:52:34.248Z,45.80
2023-01-12T02:55:02.070Z,45.80
2023-01-12T02:57:29.825Z,45.80
2023-01-12T02:59:57.708Z,45.80
2023-01-12T03:02:25.432Z,45.80
2023-01-12T03:04:53.191Z,45.80
2023-01-12T03:07:20.983Z,45.80
2023-01-12T03:09:48.771Z,45.80
2023-01-12T03:12:16.514Z,45.80
2023-01-12T03:14:44.275Z,45.80
2023-01-12T03:17:12.078Z,45.80
2023-01-12T03:19:39.763Z,45.80
2023-01-12T03:22:07.667Z,45.80
2023-01-12T03:24:35.800Z,45.80
2023-01-12T03:27:03.634Z,45.80
2023-01-12T03:29:31.370Z,45.80
2023-01-12T03:31:59.401Z,45.80
2023-01-12T03:34:27.140Z,45.80
2023-01-12T03:36:54.888Z,45.90
2023-01-12T03:39:22.682Z,45.80
2023-01-12T03:41:50.419Z,45.80
2023-01-12T03:44:18.143Z,45.90
2023-01-12T03:46:45.927Z,46.00
2023-01-12T03:49:13.703Z,45.90
2023-01-12T03:51:41.649Z,46.00
2023-01-12T03:54:09.408Z,45.90
2023-01-12T03:56:37.172Z,46.00
2023-01-12T03:59:04.995Z,46.00
2023-01-12T04:01:32.958Z,46.00
2023-01-12T04:04:00.848Z,46.00
2023-01-12T04:06:28.672Z,46.00
2023-01-12T04:08:56.484Z,46.70
2023-01-12T04:11:41.975Z,46.00
2023-01-12T04:14:09.733Z,46.00
2023-01-12T04:16:37.508Z,46.10
2023-01-12T04:19:05.332Z,46.10
2023-01-12T04:21:50.790Z,46.10
2023-01-12T04:24:18.672Z,46.10
2023-01-12T04:26:46.953Z,46.00
2023-01-12T04:29:14.989Z,46.10
2023-01-12T04:31:42.765Z,46.00
2023-01-12T04:34:10.520Z,46.00
2023-01-12T04:36:38.785Z,46.10
2023-01-12T04:39:07.383Z,46.10
2023-01-12T04:41:35.131Z,46.00
2023-01-12T04:44:02.882Z,46.00
2023-01-12T04:46:30.833Z,46.00
2023-01-12T04:48:58.616Z,45.90
2023-01-12T04:51:26.427Z,46.00
2023-01-12T04:53:54.289Z,46.00
2023-01-12T04:56:22.065Z,45.90
2023-01-12T04:58:49.790Z,46.00
2023-01-12T05:01:17.680Z,46.00
2023-01-12T05:03:45.643Z,46.00
2023-01-12T05:06:13.426Z,45.90
2023-01-12T05:08:58.949Z,46.00
2023-01-12T05:11:26.727Z,46.00
2023-01-12T05:13:55.606Z,46.00
2023-01-12T05:16:23.394Z,46.00
2023-01-12T05:18:52.850Z,46.00
2023-01-12T05:21:22.135Z,46.00
2023-01-12T05:23:49.875Z,46.00
2023-01-12T05:26:17.561Z,46.10
2023-01-12T05:28:45.317Z,46.00
2023-01-12T05:31:13.114Z,46.10
2023-01-12T05:33:40.947Z,46.20
2023-01-12T05:36:08.665Z,46.30
2023-01-12T05:38:36.410Z,46.30
2023-01-12T05:41:04.117Z,47.10
2023-01-12T05:43:49.348Z,46.50
2023-01-12T05:46:17.109Z,46.60
2023-01-12T05:48:44.978Z,46.60
2023-01-12T05:51:12.833Z,46.60
2023-01-12T05:53:42.025Z,46.60
2023-01-12T05:56:09.876Z,46.60
2023-01-12T05:58:37.672Z,46.50
2023-01-12T06:01:05.393Z,46.50
2023-01-12T06:03:33.207Z,46.60
2023-01-12T06:06:01.076Z,46.50
2023-01-12T06:08:28.838Z,46.50
2023-01-12T06:10:56.602Z,46.50
2023-01-12T06:13:42.039Z,46.50
2023-01-12T06:16:10.457Z,46.50
2023-01-12T06:18:38.210Z,46.50
2023-01-12T06:21:06.025Z,46.50
2023-01-12T06:23:35.280Z,46.50
2023-01-12T06:26:03.739Z,46.40
2023-01-12T06:28:31.569Z,46.50
2023-01-12T06:30:59.342Z,46.50
2023-01-12T06:33:27.155Z,46.40
2023-01-12T06:35:54.922Z,46.50
2023-01-12T06:38:23.219Z,46.40
2023-01-12T06:40:50.977Z,46.50
2023-01-12T06:43:18.737Z,46.50
2023-01-12T06:45:46.449Z,46.50
2023-01-12T06:48:14.143Z,46.50
2023-01-12T06:50:41.863Z,46.60
2023-01-12T06:53:09.606Z,46.60
2023-01-12T06:55:37.319Z,46.50
2023-01-12T06:58:05.217Z,46.50
2023-01-12T07:00:33.223Z,46.50
2023-01-12T07:03:01.049Z,46.50
2023-01-12T07:05:28.921Z,46.50
2023-01-12T07:07:56.767Z,46.50
2023-01-12T07:10:24.578Z,46.40
2023-01-12T07:12:52.414Z,46.50
2023-01-12T07:15:20.215Z,46.50
2023-01-12T07:17:48.008Z,46.40
2023-01-12T07:20:15.829Z,46.50
2023-01-12T07:22:43.750Z,46.40
2023-01-12T07:25:11.574Z,46.40
2023-01-12T07:27:39.391Z,46.40
2023-01-12T07:30:07.175Z,46.40
2023-01-12T07:32:34.990Z,46.30
2023-01-12T07:35:02.810Z,46.40
2023-01-12T07:37:30.645Z,46.30
2023-01-12T07:39:59.173Z,46.30
2023-01-12T07:42:27.169Z,46.30
2023-01-12T07:44:54.959Z,46.30
2023-01-12T07:47:22.910Z,46.30
2023-01-12T07:49:50.881Z,46.30
2023-01-12T07:52:18.683Z,46.30
2023-01-12T07:54:46.498Z,46.30
2023-01-12T07:57:14.258Z,46.30
2023-01-12T07:59:42.153Z,46.30
2023-01-12T08:02:10.877Z,46.30
2023-01-12T08:04:38.746Z,46.30
2023-01-12T08:07:06.567Z,46.20
2023-01-12T08:09:34.386Z,46.30
2023-01-12T08:12:02.173Z,46.30
2023-01-12T08:14:30.411Z,46.30
2023-01-12T08:17:01.774Z,46.30
2023-01-12T08:19:30.571Z,46.30
2023-01-12T08:21:58.922Z,46.30
2023-01-12T08:24:26.792Z,46.30
2023-01-12T08:26:54.766Z,46.30
2023-01-12T08:29:30.023Z,46.30
2023-01-12T08:31:57.872Z,46.30
2023-01-12T08:34:25.719Z,46.30
2023-01-12T08:36:53.577Z,46.30
2023-01-12T08:39:21.430Z,46.30
2023-01-12T08:41:49.280Z,46.30
2023-01-12T08:44:17.380Z,46.40
2023-01-12T08:46:45.374Z,46.30
2023-01-12T08:49:16.677Z,46.30
2023-01-12T08:51:44.882Z,46.40
2023-01-12T08:54:13.143Z,46.40
2023-01-12T08:56:41.003Z,46.40
2023-01-12T08:59:08.896Z,46.40
2023-01-12T09:01:37.676Z,46.40
2023-01-12T09:04:05.603Z,46.40
2023-01-12T09:06:33.419Z,46.40
2023-01-12T09:09:01.247Z,46.40
2023-01-12T09:11:29.001Z,46.30
2023-01-12T09:14:00.324Z,46.30
2023-01-12T09:16:28.297Z,47.00
2023-01-12T09:19:00.358Z,46.30
2023-01-12T09:21:28.839Z,46.30
2023-01-12T09:23:57.004Z,46.30
2023-01-12T09:26:26.134Z,46.30
2023-01-12T09:28:54.084Z,46.20
2023-01-12T09:31:22.294Z,46.20
2023-01-12T09:33:50.252Z,46.30
2023-01-12T09:36:18.079Z,46.20
2023-01-12T09:38:45.948Z,46.20
2023-01-12T09:41:14.084Z,46.20
2023-01-12T09:43:59.608Z,46.20
2023-01-12T09:46:44.780Z,46.20
2023-01-12T09:49:13.073Z,46.20
2023-01-12T09:51:40.803Z,46.10
2023-01-12T09:54:08.716Z,46.10
2023-01-12T09:56:36.471Z,46.10
2023-01-12T09:59:07.833Z,46.00
2023-01-12T10:01:36.963Z,46.10
2023-01-12T10:04:04.931Z,46.10
2023-01-12T10:06:33.032Z,46.00
2023-01-12T10:09:00.906Z,46.00
2023-01-12T10:11:29.348Z,46.00
2023-01-12T10:13:57.734Z,46.10
2023-01-12T10:16:28.822Z,46.00
2023-01-12T10:18:58.031Z,46.10
2023-01-12T10:21:26.051Z,46.10
2023-01-12T10:23:53.852Z,46.10
2023-01-12T10:26:21.845Z,46.10
2023-01-12T10:28:49.719Z,46.00
2023-01-12T10:31:17.670Z,45.90
2023-01-12T10:33:46.096Z,46.00
2023-01-12T10:36:14.170Z,46.00
2023-01-12T10:38:41.981Z,46.10
2023-01-12T10:41:09.883Z,46.00
2023-01-12T10:43:38.043Z,46.00
2023-01-12T10:46:06.739Z,46.10
2023-01-12T10:48:34.628Z,45.90
2023-01-12T10:51:04.130Z,46.00
2023-01-12T10:53:32.029Z,46.00
2023-01-12T10:56:02.048Z,45.90
2023-01-12T10:58:30.328Z,46.00
2023-01-12T11:00:59.523Z,45.90
2023-01-12T11:03:27.860Z,45.80
2023-01-12T11:05:55.786Z,45.80
2023-01-12T11:08:26.851Z,45.90
2023-01-12T11:10:54.961Z,45.80
2023-01-12T11:13:23.161Z,45.70
2023-01-12T11:15:51.896Z,45.80
2023-01-12T11:18:19.796Z,45.80
2023-01-12T11:20:47.736Z,45.80
2023-01-12T11:23:19.773Z,45.80
2023-01-12T11:25:47.727Z,45.70
2023-01-12T11:28:15.729Z,45.70
2023-01-12T11:30:45.073Z,45.60
2023-01-12T11:33:13.434Z,45.70
2023-01-12T11:35:42.003Z,45.60
2023-01-12T11:38:10.329Z,45.60
2023-01-12T11:40:39.003Z,45.60
2023-01-12T11:43:24.374Z,45.50
2023-01-12T11:45:52.676Z,45.70
2023-01-12T11:48:20.554Z,45.60
2023-01-12T11:50:48.687Z,45.60
2023-01-12T11:53:16.530Z,45.60
2023-01-12T11:55:44.418Z,45.80
2023-01-12T11:58:12.289Z,45.80
2023-01-12T12:00:40.114Z,45.80
2023-01-12T12:03:07.950Z,45.80
2023-01-12T12:05:35.712Z,45.70
2023-01-12T12:08:03.494Z,45.80
2023-01-12T12:10:31.282Z,45.80
2023-01-12T12:12:59.666Z,45.80
2023-01-12T12:15:28.176Z,45.70
2023-01-12T12:17:56.814Z,45.80
2023-01-12T12:20:25.511Z,45.70
2023-01-12T12:22:54.252Z,45.70
2023-01-12T12:25:22.671Z,45.80
2023-01-12T12:27:51.052Z,45.90
2023-01-12T12:30:19.445Z,45.90
2023-01-12T12:32:47.717Z,45.70
2023-01-12T12:35:15.996Z,45.80
2023-01-12T12:37:46.553Z,45.90
2023-01-12T12:40:16.297Z,45.90
2023-01-12T12:43:02.297Z,45.80
2023-01-12T12:45:30.615Z,45.90
2023-01-12T12:48:01.872Z,45.90
2023-01-12T12:50:30.261Z,45.90
2023-01-12T12:53:00.037Z,45.90
2023-01-12T12:55:31.138Z,45.90
2023-01-12T12:57:59.132Z,45.90
2023-01-12T13:00:27.349Z,46.00
2023-01-12T13:02:55.271Z,46.00
2023-01-12T13:05:23.167Z,46.00
2023-01-12T13:07:51.037Z,46.00
2023-01-12T13:10:18.817Z,46.00
2023-01-12T13:12:46.653Z,46.10
2023-01-12T13:15:14.439Z,46.10
2023-01-12T13:17:42.417Z,46.10
2023-01-12T13:20:24.684Z,45.90
2023-01-12T13:22:53.418Z,46.10
2023-01-12T13:25:23.064Z,46.00
2023-01-12T13:27:50.936Z,46.10
2023-01-12T13:30:19.283Z,46.00
2023-01-12T13:32:47.094Z,46.00
2023-01-12T13:35:14.987Z,46.00
2023-01-12T13:37:42.814Z,45.90
2023-01-12T13:40:10.661Z,46.00
2023-01-12T13:42:56.234Z,45.90
2023-01-12T13:45:24.200Z,46.00
2023-01-12T13:47:52.034Z,45.90
2023-01-12T13:50:19.935Z,46.00
2023-01-12T13:52:47.832Z,45.90
2023-01-12T13:55:15.639Z,45.90
2023-01-12T13:57:43.532Z,45.90
2023-01-12T14:00:11.695Z,45.90
2023-01-12T14:02:39.758Z,45.90
2023-01-12T14:05:07.810Z,45.90
2023-01-12T14:07:35.734Z,45.90
2023-01-12T14:10:06.201Z,45.80
2023-01-12T14:12:34.036Z,45.90
2023-01-12T14:15:19.595Z,45.90
2023-01-12T14:17:50.409Z,45.90
2023-01-12T14:20:18.473Z,45.90
2023-01-12T14:22:46.488Z,45.80
2023-01-12T14:25:14.363Z,45.90
2023-01-12T14:27:42.377Z,45.90
2023-01-12T14:30:10.261Z,45.90
2023-01-12T14:32:38.127Z,45.90
2023-01-12T14:35:06.029Z,45.90
2023-01-12T14:37:34.298Z,45.90
2023-01-12T14:40:02.161Z,46.00
2023-01-12T14:42:47.251Z,45.90
2023-01-12T14:45:32.861Z,45.90
2023-01-12T14:48:00.676Z,46.00
2023-01-12T14:50:28.475Z,45.90
2023-01-12T14:52:56.386Z,46.00
2023-01-12T14:55:24.270Z,45.90
2023-01-12T14:57:52.085Z,45.90
2023-01-12T15:00:19.875Z,45.80
2023-01-12T15:02:47.705Z,45.60
2023-01-12T15:05:16.807Z,45.40
2023-01-12T15:07:44.771Z,45.20
2023-01-12T15:10:12.612Z,45.10
2023-01-12T15:12:40.541Z,45.60
2023-01-12T15:15:08.331Z,41.10
2023-01-12T15:17:59.062Z,35.40
2023-01-12T15:20:43.419Z,30.60
2023-01-12T15:23:28.957Z,27.60
2023-01-12T15:25:56.801Z,25.80
2023-01-12T15:28:25.437Z,24.50
2023-01-12T15:30:55.645Z,23.60
2023-01-12T15:33:23.600Z,22.90
2023-01-12T15:35:51.457Z,22.40
2023-01-12T15:38:20.791Z,22.00
2023-01-12T15:40:48.941Z,21.60
2023-01-12T15:43:16.764Z,21.30
2023-01-12T15:45:44.664Z,21.20
2023-01-12T15:48:13.146Z,21.10
2023-01-12T15:50:40.972Z,21.30
2023-01-12T15:53:08.957Z,21.60
2023-01-12T15:55:37.360Z,22.10
2023-01-12T15:58:05.139Z,22.70
2023-01-12T16:00:32.996Z,23.40
2023-01-12T16:03:00.832Z,24.10
2023-01-12T16:05:29.027Z,25.30
2023-01-12T16:07:56.962Z,25.40
2023-01-12T16:10:24.823Z,26.10
2023-01-12T16:12:52.645Z,26.80
2023-01-12T16:15:20.473Z,27.40
2023-01-12T16:17:48.311Z,28.00
2023-01-12T16:20:16.927Z,28.70
2023-01-12T16:22:44.936Z,29.30
2023-01-12T16:25:12.831Z,29.80
2023-01-12T16:27:40.767Z,30.40
2023-01-12T16:30:08.692Z,31.00
2023-01-12T16:32:36.577Z,31.60
2023-01-12T16:35:04.426Z,32.30
2023-01-12T16:37:33.507Z,32.90
2023-01-12T16:40:01.546Z,33.40
2023-01-12T16:42:29.518Z,33.90
2023-01-12T16:44:57.376Z,34.50
2023-01-12T16:47:25.619Z,34.80
2023-01-12T16:49:53.485Z,35.40
2023-01-12T16:52:21.429Z,35.80
2023-01-12T16:54:49.339Z,36.30
2023-01-12T16:57:17.198Z,36.80
2023-01-12T16:59:45.025Z,37.00
2023-01-12T17:02:13.314Z,37.30
2023-01-12T17:04:42.424Z,37.70
2023-01-12T17:07:11.087Z,38.00
2023-01-12T17:09:39.193Z,38.30
2023-01-12T17:12:07.295Z,38.60
2023-01-12T17:14:35.466Z,38.60
2023-01-12T17:17:04.032Z,39.00
2023-01-12T17:19:32.547Z,39.30
2023-01-12T17:22:02.145Z,39.50
2023-01-12T17:24:30.223Z,39.70
2023-01-12T17:26:58.121Z,40.00
2023-01-12T17:29:26.927Z,40.50
2023-01-12T17:31:56.558Z,40.70
2023-01-12T17:34:27.488Z,39.30
2023-01-12T17:36:55.391Z,35.60
2023-01-12T17:39:23.273Z,32.00
2023-01-12T17:42:08.713Z,29.40
2023-01-12T17:44:36.615Z,27.70
2023-01-12T17:47:04.603Z,26.40
2023-01-12T17:49:32.593Z,25.50
2023-01-12T17:52:00.671Z,24.70
2023-01-12T17:54:28.509Z,24.30
2023-01-12T17:56:56.358Z,24.10
2023-01-12T17:59:24.362Z,24.10
2023-01-12T18:01:52.363Z,24.30
2023-01-12T18:04:21.036Z,24.80
2023-01-12T18:06:48.940Z,25.10
2023-01-12T18:09:16.779Z,25.80
2023-01-12T18:11:44.588Z,26.30
2023-01-12T18:14:12.478Z,26.80
2023-01-12T18:16:40.370Z,27.40
2023-01-12T18:19:08.913Z,28.10
2023-01-12T18:21:37.034Z,28.70
2023-01-12T18:24:04.912Z,29.20
2023-01-12T18:26:33.662Z,29.70
2023-01-12T18:29:01.450Z,30.10
2023-01-12T18:31:31.451Z,30.80
2023-01-12T18:34:01.707Z,31.40
2023-01-12T18:36:29.529Z,31.90
2023-01-12T18:38:57.302Z,32.60
2023-01-12T18:41:42.995Z,33.10
2023-01-12T18:44:10.820Z,33.60
2023-01-12T18:46:56.455Z,34.10
2023-01-12T18:49:24.241Z,34.60
2023-01-12T18:52:09.365Z,35.30
2023-01-12T18:54:37.922Z,35.40
2023-01-12T18:57:05.902Z,36.10
2023-01-12T18:59:42.133Z,36.40
2023-01-12T19:02:10.389Z,36.80
2023-01-12T19:04:59.055Z,37.30
2023-01-12T19:07:32.826Z,37.60
2023-01-12T19:10:02.467Z,37.90
2023-01-12T19:12:31.525Z,37.90
2023-01-12T19:15:23.538Z,38.40
2023-01-12T19:17:52.346Z,38.70
2023-01-12T19:20:24.302Z,39.00
2023-01-12T19:23:10.024Z,39.30
2023-01-12T19:25:55.488Z,39.60
2023-01-12T19:28:36.460Z,39.90
2023-01-12T19:31:05.231Z,40.20
2023-01-12T19:33:36.454Z,40.40
2023-01-12T19:36:04.313Z,40.60
2023-01-12T19:38:32.130Z,40.70
2023-01-12T19:41:07.236Z,41.00
2023-01-12T19:43:39.229Z,41.20
2023-01-12T19:46:09.730Z,39.60
2023-01-12T19:48:38.138Z,35.70
2023-01-12T19:51:10.219Z,31.80
2023-01-12T19:53:41.819Z,29.70
2023-01-12T19:56:10.320Z,28.70
2023-01-12T19:58:41.136Z,28.30
2023-01-12T20:01:09.357Z,28.20
2023-01-12T20:03:39.849Z,28.40
2023-01-12T20:06:10.691Z,28.70
2023-01-12T20:08:38.595Z,29.00
2023-01-12T20:11:06.581Z,29.50
2023-01-12T20:13:34.845Z,30.00
2023-01-12T20:16:02.760Z,30.50
2023-01-12T20:18:30.811Z,31.40
2023-01-12T20:21:01.359Z,32.40
2023-01-12T20:23:35.511Z,32.20
2023-01-12T20:26:09.089Z,32.80
2023-01-12T20:28:37.038Z,33.60
2023-01-12T20:31:05.061Z,34.00
2023-01-12T20:33:36.101Z,34.60
2023-01-12T20:36:04.063Z,35.10
2023-01-12T20:38:37.212Z,35.70
2023-01-12T20:41:05.142Z,36.20
2023-01-12T20:43:33.223Z,36.70
2023-01-12T20:46:05.751Z,37.10
2023-01-12T20:48:33.563Z,37.50
2023-01-12T20:51:04.471Z,37.80
2023-01-12T20:53:35.700Z,38.00
2023-01-12T20:56:05.586Z,38.40
2023-01-12T20:58:36.766Z,38.80
2023-01-12T21:01:04.693Z,39.10
2023-01-12T21:03:36.138Z,39.40
2023-01-12T21:06:09.053Z,39.60
2023-01-12T21:08:37.041Z,40.00
2023-01-12T21:11:08.373Z,40.00
2023-01-12T21:13:36.280Z,40.40
2023-01-12T21:16:06.969Z,40.50
2023-01-12T21:18:39.921Z,40.80
2023-01-12T21:21:15.681Z,41.00
2023-01-12T21:23:43.621Z,41.20
2023-01-12T21:26:14.717Z,41.40
2023-01-12T21:28:42.760Z,41.60
2023-01-12T21:31:10.914Z,41.60
2023-01-12T21:33:39.378Z,42.00
2023-01-12T21:36:07.235Z,42.10
2023-01-12T21:38:38.746Z,42.20
2023-01-12T21:41:06.636Z,42.30
2023-01-12T21:43:39.410Z,42.30
2023-01-12T21:46:15.221Z,42.60
2023-01-12T21:48:43.231Z,42.70
2023-01-12T21:51:11.140Z,42.80
2023-01-12T21:53:39.569Z,42.90
2023-01-12T21:56:07.846Z,43.10
2023-01-12T21:58:36.547Z,43.10
2023-01-12T22:01:04.597Z,43.20
2023-01-12T22:03:32.654Z,43.40
2023-01-12T22:06:00.841Z,43.50
2023-01-12T22:08:28.772Z,43.40
2023-01-12T22:10:56.780Z,43.70
2023-01-12T22:13:26.780Z,43.70
2023-01-12T22:15:54.815Z,43.60
2023-01-12T22:18:24.933Z,43.60
2023-01-12T22:20:52.974Z,43.90
2023-01-12T22:23:23.897Z,43.90
2023-01-12T22:25:54.793Z,44.00
2023-01-12T22:28:45.718Z,44.00
2023-01-12T22:31:19.498Z,44.10
2023-01-12T22:34:09.557Z,44.10
2023-01-12T22:36:59.209Z,44.30
2023-01-12T22:39:32.900Z,44.30
2023-01-12T22:42:09.397Z,44.20
2023-01-12T22:44:39.551Z,44.20
2023-01-12T22:47:16.347Z,44.40
2023-01-12T22:50:05.153Z,44.40
2023-01-12T22:52:37.094Z,44.40
2023-01-12T22:55:09.674Z,44.50
2023-01-12T22:57:41.435Z,44.50
2023-01-12T23:00:13.434Z,44.60
2023-01-12T23:02:59.079Z,44.50
2023-01-12T23:05:30.452Z,44.50
2023-01-12T23:08:01.758Z,44.50
2023-01-12T23:10:32.095Z,44.60
2023-01-12T23:13:21.504Z,44.70
2023-01-12T23:15:49.721Z,45.20
2023-01-12T23:18:25.292Z,44.70
2023-01-12T23:21:06.394Z,44.60
2023-01-12T23:23:42.353Z,44.70
2023-01-12T23:26:15.602Z,44.70
2023-01-12T23:29:12.522Z,44.80
2023-01-12T23:32:03.675Z,44.70
2023-01-12T23:40:22.443Z,44.90
2023-01-12T23:43:07.216Z,44.90
2023-01-12T23:52:02.788Z,45.00
2023-01-12T23:54:43.693Z,45.00
2023-01-12T23:57:19.031Z,44.90
2023-01-12T23:59:56.297Z,45.20
